Time;durP1;ratioP1;P1;durP2;ratioP2;P2;SDS_P1;SDS_P2;PMS_P1;PMS_P2;Temp;Humidity;BMP_temperature;BMP_pressure;BME280_temperature;BME280_humidity;BME280_pressure;Samples;Min_cycle;Max_cycle;Signal;HPM_P1;HPM_P2
2024/04/25 00:00:52;;;;;;;0.00;0.00;;;;;;;;;;5387113;26;19997;-65
2024/04/25 00:03:18;;;;;;;0.00;0.00;;;5.10;99.90;;;;;;5387870;26;20012;-65
2024/04/25 00:05:43;;;;;;;0.00;0.00;;;4.70;99.90;;;;;;5387141;26;20003;-65
2024/04/25 00:08:09;;;;;;;0.00;0.00;;;;;;;;;;5393887;26;20191;-65
2024/04/25 00:10:36;;;;;;;0.00;0.00;;;;;;;;;;5419413;26;19998;-65
2024/04/25 00:13:03;;;;;;;0.00;0.00;;;4.70;99.90;;;;;;5392893;26;19995;-65
2024/04/25 00:15:29;;;;;;;0.00;0.00;;;;;;;;;;5387740;26;20000;-66
2024/04/25 00:17:54;;;;;;;0.00;0.00;;;4.70;99.90;;;;;;5387610;26;20007;-65
2024/04/25 00:20:20;;;;;;;0.00;0.00;;;;;;;;;;5387288;26;19988;-67
2024/04/25 00:22:46;;;;;;;0.00;0.00;;;;;;;;;;5387487;26;20007;-65
2024/04/25 00:25:12;;;;;;;0.00;0.00;;;4.80;99.90;;;;;;5387158;26;20060;-65
2024/04/25 00:27:38;;;;;;;0.00;0.00;;;4.70;99.90;;;;;;5396558;26;19988;-66
2024/04/25 00:30:04;;;;;;;0.00;0.00;;;;;;;;;;5391963;26;20204;-67
2024/04/25 00:32:30;;;;;;;0.00;0.00;;;4.80;99.90;;;;;;5387181;26;20068;-67
2024/04/25 00:35:00;;;;;;;0.00;0.00;;;;;;;;;;5387288;26;20000;-67
2024/04/25 00:37:26;;;;;;;0.00;0.00;;;;;;;;;;5389284;26;20398;-66
2024/04/25 00:39:54;;;;;;;0.00;0.00;;;;;;;;;;5390735;26;20030;-66
2024/04/25 00:42:22;;;;;;;0.00;0.00;;;4.60;99.90;;;;;;5390631;26;20000;-65
2024/04/25 00:44:51;;;;;;;0.00;0.00;;;4.50;99.90;;;;;;5402385;26;20049;-65
2024/04/25 00:47:18;;;;;;;;;;;4.60;99.90;;;;;;5392795;26;20004;-65
2024/04/25 00:49:49;;;;;;;0.00;0.00;;;4.50;99.90;;;;;;5390709;26;19928;-65
2024/04/25 00:52:18;;;;;;;0.00;0.00;;;4.50;99.90;;;;;;5389838;26;20000;-65
2024/04/25 00:54:44;;;;;;;0.00;0.00;;;;;;;;;;5390817;26;19999;-65
2024/04/25 00:57:14;;;;;;;0.00;0.00;;;4.50;99.90;;;;;;5390675;26;20001;-65
2024/04/25 00:59:47;;;;;;;0.00;0.00;;;4.40;99.90;;;;;;5400063;26;20039;-65
2024/04/25 01:02:15;;;;;;;0.00;0.00;;;4.60;99.90;;;;;;5403854;26;20024;-65
2024/04/25 01:04:42;;;;;;;0.00;0.00;;;4.40;99.90;;;;;;5389595;26;20145;-65
2024/04/25 01:07:09;;;;;;;0.00;0.00;;;4.40;99.90;;;;;;5390371;26;19996;-65
2024/04/25 01:09:35;;;;;;;0.00;0.00;;;4.60;99.90;;;;;;5389434;26;20205;-65
2024/04/25 01:12:01;;;;;;;0.00;0.00;;;;;;;;;;5389955;26;20028;-64
2024/04/25 01:14:27;;;;;;;0.00;0.00;;;;;;;;;;5390066;26;20222;-64
2024/04/25 01:16:53;;;;;;;0.00;0.00;;;4.60;99.90;;;;;;5389971;26;20204;-64
2024/04/25 01:19:19;;;;;;;0.00;0.00;;;4.60;99.90;;;;;;5403981;26;20015;-64
2024/04/25 01:21:45;;;;;;;0.00;0.00;;;4.50;99.90;;;;;;5389847;26;19996;-64
2024/04/25 01:24:15;;;;;;;0.00;0.00;;;4.50;99.90;;;;;;5359940;26;20558;-64
2024/04/25 01:26:41;;;;;;;0.00;0.00;;;4.50;99.90;;;;;;5389088;26;19992;-64
2024/04/25 01:29:13;;;;;;;0.00;0.00;;;4.50;99.90;;;;;;5389824;26;20000;-65
2024/04/25 01:31:40;;;;;;;0.00;0.00;;;;;;;;;;5389898;26;20050;-64
2024/04/25 01:34:06;;;;;;;0.00;0.00;;;;;;;;;;5389905;26;20028;-64
2024/04/25 01:36:32;;;;;;;0.00;0.00;;;;;;;;;;5404287;26;19988;-66
2024/04/25 01:38:58;;;;;;;0.00;0.00;;;;;;;;;;5389955;26;20154;-65
2024/04/25 01:41:24;;;;;;;0.00;0.00;;;;;;;;;;5389023;26;20178;-65
2024/04/25 01:43:51;;;;;;;0.00;0.00;;;;;;;;;;5389167;26;20208;-67
2024/04/25 01:46:17;;;;;;;0.00;0.00;;;;;;;;;;5390108;26;20000;-68
2024/04/25 01:48:46;;;;;;;0.00;0.00;;;;;;;;;;5388707;26;20186;-68
2024/04/25 01:51:12;;;;;;;0.00;0.00;;;4.20;99.90;;;;;;5389087;26;20003;-65
2024/04/25 01:53:38;;;;;;;0.00;0.00;;;;;;;;;;5404230;26;19997;-66
2024/04/25 01:56:04;;;;;;;0.00;0.00;;;4.00;99.90;;;;;;5389562;26;20197;-66
2024/04/25 01:58:29;;;;;;;0.00;0.00;;;4.20;99.90;;;;;;5389717;26;20003;-66
2024/04/25 02:00:55;;;;;;;0.00;0.00;;;;;;;;;;5388569;26;20006;-67
2024/04/25 02:03:21;;;;;;;0.00;0.00;;;;;;;;;;5389380;26;19992;-65
2024/04/25 02:05:47;;;;;;;0.00;0.00;;;4.10;99.90;;;;;;5389431;26;19993;-64
2024/04/25 02:08:13;;;;;;;0.00;0.00;;;;;;;;;;5392295;26;20002;-64
2024/04/25 02:10:39;;;;;;;0.00;0.00;;;4.00;99.90;;;;;;5414801;26;20000;-64
2024/04/25 02:13:05;;;;;;;0.00;0.00;;;2.70;99.90;;;;;;5388931;26;20093;-64
2024/04/25 02:15:31;;;;;;;0.00;0.00;;;3.80;99.90;;;;;;5389452;26;20006;-64
2024/04/25 02:17:57;;;;;;;0.00;0.00;;;3.80;99.90;;;;;;5388189;26;19992;-64
2024/04/25 02:25:51;;;;;;;0.00;0.00;;;3.60;99.90;;;;;;5389104;26;20037;-65
2024/04/25 02:28:16;;;;;;;0.00;0.00;;;3.80;99.90;;;;;;5403417;26;20240;-65
2024/04/25 02:30:42;;;;;;;0.00;0.00;;;3.60;99.90;;;;;;5389565;26;20012;-65
2024/04/25 02:33:08;;;;;;;0.00;0.00;;;3.30;99.90;;;;;;5389219;26;19995;-64
2024/04/25 02:35:33;;;;;;;0.05;0.05;;;3.60;99.90;;;;;;5389469;26;19992;-65
2024/04/25 02:37:59;;;;;;;0.00;0.00;;;3.60;99.90;;;;;;5389290;26;19992;-63
2024/04/25 02:40:25;;;;;;;0.25;0.25;;;3.70;99.90;;;;;;5388508;26;19988;-65
2024/04/25 02:42:50;;;;;;;0.00;0.00;;;3.50;99.90;;;;;;5389311;26;20023;-63
2024/04/25 02:45:16;;;;;;;0.05;0.05;;;3.60;99.90;;;;;;5403435;26;19992;-63
2024/04/25 02:47:42;;;;;;;0.00;0.00;;;3.50;99.90;;;;;;5389297;26;20212;-65
2024/04/25 02:50:10;;;;;;;0.00;0.00;;;3.40;99.90;;;;;;5388533;26;20057;-64
2024/04/25 02:52:37;;;;;;;0.00;0.00;;;3.40;99.90;;;;;;5388972;26;20389;-65
2024/04/25 02:55:03;;;;;;;0.00;0.00;;;3.50;99.90;;;;;;5388789;26;20611;-65
2024/04/25 02:57:28;;;;;;;0.00;0.00;;;3.70;99.90;;;;;;5388619;26;20006;-64
2024/04/25 02:59:54;;;;;;;0.00;0.00;;;3.50;99.90;;;;;;5388540;26;20198;-63
2024/04/25 03:02:19;;;;;;;0.00;0.00;;;3.40;99.90;;;;;;5402783;26;20176;-64
2024/04/25 03:04:45;;;;;;;0.00;0.00;;;3.50;99.90;;;;;;5399431;26;20139;-66
2024/04/25 03:07:11;;;;;;;0.00;0.00;;;3.40;99.90;;;;;;5394977;26;20062;-65
2024/04/25 03:09:36;;;;;;;0.00;0.00;;;3.50;99.90;;;;;;5406527;26;19999;-65
2024/04/25 03:12:02;;;;;;;0.00;0.00;;;3.50;99.90;;;;;;5392657;26;19988;-66
2024/04/25 03:14:28;;;;;;;0.00;0.00;;;3.60;99.90;;;;;;5388417;26;20183;-66
2024/04/25 03:16:54;;;;;;;0.00;0.00;;;3.70;99.90;;;;;;5388732;26;20004;-65
2024/04/25 03:19:20;;;;;;;0.00;0.00;;;3.90;99.90;;;;;;5401827;26;20003;-64
2024/04/25 03:21:46;;;;;;;0.00;0.00;;;3.90;99.90;;;;;;5387466;26;20009;-65
2024/04/25 03:24:12;;;;;;;0.05;0.05;;;;;;;;;;5387405;26;19992;-65
2024/04/25 03:26:37;;;;;;;0.00;0.00;;;3.70;99.90;;;;;;5387764;26;20020;-65
2024/04/25 03:29:03;;;;;;;0.00;0.00;;;3.60;99.90;;;;;;5387736;26;20044;-65
2024/04/25 03:31:29;;;;;;;0.00;0.00;;;3.60;99.90;;;;;;5388613;26;19984;-66
2024/04/25 03:33:55;;;;;;;0.00;0.00;;;3.40;99.90;;;;;;5388707;26;20005;-65
2024/04/25 03:36:20;;;;;;;0.00;0.00;;;3.40;99.90;;;;;;5402772;26;20394;-67
2024/04/25 03:38:46;;;;;;;0.00;0.00;;;3.40;99.90;;;;;;5388244;26;20041;-66
2024/04/25 03:41:16;;;;;;;0.00;0.00;;;3.40;99.90;;;;;;5388016;26;19992;-63
2024/04/25 03:43:42;;;;;;;0.00;0.00;;;3.40;99.90;;;;;;5388097;26;19988;-65
2024/04/25 03:46:08;;;;;;;0.00;0.00;;;3.30;99.90;;;;;;5387928;26;20241;-66
2024/04/25 03:48:36;;;;;;;0.00;0.00;;;3.30;99.90;;;;;;5387798;26;20003;-66
2024/04/25 03:51:02;;;;;;;0.00;0.00;;;3.20;99.90;;;;;;5387344;26;20046;-65
2024/04/25 03:53:28;;;;;;;0.00;0.00;;;3.20;99.90;;;;;;5400630;26;20012;-68
2024/04/25 03:55:53;;;;;;;0.00;0.00;;;3.20;99.90;;;;;;5359108;26;20001;-65
2024/04/25 03:58:19;;;;;;;0.00;0.00;;;3.20;99.90;;;;;;5394138;26;20233;-65
2024/04/25 04:00:44;;;;;;;0.00;0.00;;;3.20;99.90;;;;;;5399798;26;19992;-66
2024/04/25 04:03:13;;;;;;;0.00;0.00;;;3.10;99.90;;;;;;5377645;26;19995;-65
2024/04/25 04:05:39;;;;;;;0.00;0.00;;;3.00;99.90;;;;;;5386672;26;20013;-64
2024/04/25 04:08:05;;;;;;;0.00;0.00;;;3.10;99.90;;;;;;5388534;26;19988;-66
2024/04/25 04:10:30;;;;;;;0.00;0.00;;;3.30;99.90;;;;;;5404891;26;19987;-67
2024/04/25 04:12:56;;;;;;;0.00;0.00;;;;;;;;;;5398757;26;19984;-65
2024/04/25 04:15:22;;;;;;;0.00;0.00;;;3.20;99.90;;;;;;5390993;26;20211;-65
2024/04/25 04:17:48;;;;;;;0.00;0.00;;;3.50;99.90;;;;;;5390185;26;19992;-66
2024/04/25 04:20:13;;;;;;;0.00;0.00;;;3.50;99.90;;;;;;5394176;26;20577;-66
2024/04/25 04:22:39;;;;;;;0.00;0.00;;;3.60;99.90;;;;;;5377133;26;20438;-66
2024/04/25 04:25:05;;;;;;;0.00;0.00;;;3.30;99.90;;;;;;5387713;26;19992;-65
2024/04/25 04:27:31;;;;;;;0.00;0.00;;;3.70;99.90;;;;;;5403113;26;19996;-66
2024/04/25 04:29:56;;;;;;;0.05;0.05;;;3.80;99.90;;;;;;5390977;26;19992;-65
2024/04/25 04:32:23;;;;;;;0.00;0.00;;;3.70;99.90;;;;;;5390729;26;19988;-66
2024/04/25 04:34:49;;;;;;;0.00;0.00;;;3.80;99.90;;;;;;5405579;26;19984;-66
2024/04/25 04:37:14;;;;;;;0.00;0.00;;;3.80;99.90;;;;;;5397969;26;20519;-64
2024/04/25 04:39:40;;;;;;;0.00;0.00;;;3.80;99.90;;;;;;5391185;26;20124;-64
2024/04/25 04:42:07;;;;;;;0.00;0.00;;;3.80;99.90;;;;;;5403383;26;20086;-67
2024/04/25 04:44:33;;;;;;;0.00;0.00;;;3.80;99.90;;;;;;5390412;26;20204;-65
2024/04/25 04:47:00;;;;;;;0.00;0.00;;;3.80;99.90;;;;;;5390551;26;19996;-63
2024/04/25 04:49:26;;;;;;;0.10;0.10;;;3.80;99.90;;;;;;5390023;26;20007;-64
2024/04/25 04:51:52;;;;;;;0.00;0.00;;;3.70;99.90;;;;;;5390517;26;19992;-66
2024/04/25 04:54:17;;;;;;;0.00;0.00;;;3.80;99.90;;;;;;5389110;26;19992;-65
2024/04/25 04:56:44;;;;;;;0.00;0.00;;;3.70;99.90;;;;;;5399855;26;20002;-66
2024/04/25 04:59:10;;;;;;;0.00;0.00;;;3.80;99.90;;;;;;5392667;26;20028;-66
2024/04/25 05:01:36;;;;;;;0.00;0.00;;;3.90;99.90;;;;;;5401058;26;20004;-67
2024/04/25 05:04:01;;;;;;;0.00;0.00;;;3.90;99.90;;;;;;5390204;26;20074;-66
2024/04/25 05:06:27;;;;;;;0.00;0.00;;;1.70;99.90;;;;;;5390622;26;20000;-64
2024/04/25 05:08:54;;;;;;;0.00;0.00;;;3.80;99.90;;;;;;5392949;26;19995;-64
2024/04/25 05:11:20;;;;;;;0.00;0.00;;;3.90;99.90;;;;;;5391013;26;20004;-64
2024/04/25 05:13:46;;;;;;;0.00;0.00;;;3.80;99.90;;;;;;5389167;26;20002;-65
2024/04/25 05:16:12;;;;;;;0.00;0.00;;;3.90;99.90;;;;;;5393368;26;20000;-64
2024/04/25 05:18:37;;;;;;;0.00;0.00;;;4.00;99.90;;;;;;5401680;26;20007;-65
2024/04/25 05:21:03;;;;;;;0.00;0.00;;;4.20;99.90;;;;;;5390329;26;19996;-65
2024/04/25 05:23:29;;;;;;;0.00;0.00;;;4.20;99.90;;;;;;5390209;26;20000;-65
2024/04/25 05:25:55;;;;;;;0.00;0.00;;;4.30;99.90;;;;;;5390395;26;20003;-65
2024/04/25 05:28:22;;;;;;;0.00;0.00;;;4.20;99.90;;;;;;5389072;26;19988;-66
2024/04/25 05:30:47;;;;;;;0.10;0.10;;;4.50;99.90;;;;;;5387844;26;19993;-66
2024/04/25 05:33:13;;;;;;;0.00;0.00;;;;;;;;;;5390811;26;20038;-65
2024/04/25 05:35:40;;;;;;;0.00;0.00;;;;;;;;;;5398569;26;20025;-65
2024/04/25 05:38:06;;;;;;;0.20;0.20;;;4.50;99.90;;;;;;5386558;26;19988;-65
2024/04/25 05:40:32;;;;;;;0.00;0.00;;;4.20;99.90;;;;;;5386444;26;20002;-65
2024/04/25 05:42:58;;;;;;;0.00;0.00;;;;;;;;;;5388944;26;19992;-65
2024/04/25 05:45:24;;;;;;;0.00;0.00;;;4.40;99.90;;;;;;5389659;26;20004;-65
2024/04/25 05:47:50;;;;;;;0.05;0.05;;;4.30;99.90;;;;;;5388960;26;19988;-65
2024/04/25 05:50:15;;;;;;;0.00;0.00;;;4.40;99.90;;;;;;5392198;26;20008;-65
2024/04/25 05:52:41;;;;;;;0.00;0.00;;;4.40;99.90;;;;;;5400569;26;19988;-65
2024/04/25 05:55:07;;;;;;;0.15;0.15;;;4.80;99.90;;;;;;5389816;26;20000;-65
2024/04/25 05:57:33;;;;;;;0.00;0.00;;;4.50;99.90;;;;;;5390117;26;20225;-65
2024/04/25 05:59:59;;;;;;;0.00;0.00;;;4.60;99.90;;;;;;5390100;26;20004;-64
2024/04/25 06:02:28;;;;;;;0.00;0.00;;;4.70;99.90;;;;;;5390181;26;19992;-65
2024/04/25 06:04:53;;;;;;;0.00;0.00;;;4.70;99.90;;;;;;5390042;26;20003;-66
2024/04/25 06:07:19;;;;;;;0.00;0.00;;;4.80;99.90;;;;;;5394437;26;20007;-65
2024/04/25 06:09:45;;;;;;;0.00;0.00;;;4.90;99.90;;;;;;5411071;26;20008;-65
2024/04/25 06:12:13;;;;;;;0.00;0.00;;;5.10;99.90;;;;;;5402838;26;19988;-68
2024/04/25 06:14:40;;;;;;;0.00;0.00;;;5.10;99.90;;;;;;5392286;26;20046;-63
2024/04/25 06:17:06;;;;;;;0.00;0.00;;;5.10;99.90;;;;;;5389265;26;19988;-63
2024/04/25 06:19:32;;;;;;;0.00;0.00;;;5.40;99.90;;;;;;5389279;26;19992;-63
2024/04/25 06:21:58;;;;;;;0.00;0.00;;;5.30;99.90;;;;;;5389306;26;19992;-63
2024/04/25 06:24:24;;;;;;;0.00;0.00;;;5.40;99.90;;;;;;5394545;26;19983;-63
2024/04/25 06:26:50;;;;;;;0.00;0.00;;;5.60;99.90;;;;;;5397696;26;20000;-63
2024/04/25 06:29:15;;;;;;;0.00;0.00;;;5.60;99.90;;;;;;5388905;26;20314;-63
2024/04/25 06:31:41;;;;;;;0.00;0.00;;;5.80;99.90;;;;;;5389113;26;20046;-63
2024/04/25 06:34:09;;;;;;;0.00;0.00;;;5.70;99.90;;;;;;5387135;26;20062;-63
2024/04/25 06:36:35;;;;;;;0.00;0.00;;;5.80;99.90;;;;;;5392721;26;19988;-63
2024/04/25 06:39:04;;;;;;;0.08;0.08;;;5.90;99.90;;;;;;5391774;26;20049;-64
2024/04/25 06:41:30;;;;;;;;;;;6.00;99.90;;;;;;5398533;26;19992;-64
2024/04/25 06:43:56;;;;;;;0.00;0.00;;;6.20;99.90;;;;;;5394856;26;19928;-64
2024/04/25 06:46:22;;;;;;;0.00;0.00;;;6.40;99.90;;;;;;5388607;26;19996;-65
2024/04/25 06:48:48;;;;;;;0.22;0.22;;;6.50;99.90;;;;;;5391473;26;20210;-64
2024/04/25 06:51:18;;;;;;;0.00;0.00;;;6.60;99.90;;;;;;5388811;26;20290;-64
2024/04/25 06:53:45;;;;;;;0.00;0.00;;;6.70;99.90;;;;;;5388912;26;20147;-65
2024/04/25 06:56:11;;;;;;;0.00;0.00;;;;;;;;;;5388975;26;19992;-64
2024/04/25 06:58:37;;;;;;;0.00;0.00;;;7.10;99.90;;;;;;5396881;26;20003;-65
2024/04/25 07:01:04;;;;;;;0.00;0.00;;;7.50;99.90;;;;;;5394040;26;19992;-65
2024/04/25 07:03:30;;;;;;;0.10;0.10;;;7.50;99.90;;;;;;5388920;26;20007;-65
2024/04/25 07:05:56;;;;;;;0.00;0.00;;;;;;;;;;5388595;26;20096;-65
2024/04/25 07:08:22;;;;;;;0.00;0.00;;;8.00;99.90;;;;;;5388520;26;20004;-65
2024/04/25 07:10:48;;;;;;;0.00;0.00;;;;;;;;;;5388357;26;19996;-65
2024/04/25 07:13:14;;;;;;;0.00;0.00;;;7.90;99.90;;;;;;5388276;26;19999;-65
2024/04/25 07:15:40;;;;;;;0.00;0.00;;;;;;;;;;5398134;26;20437;-65
2024/04/25 07:18:07;;;;;;;0.00;0.00;;;8.10;99.90;;;;;;5392786;26;19988;-65
2024/04/25 07:20:34;;;;;;;0.00;0.00;;;8.40;99.90;;;;;;5364919;26;20001;-65
2024/04/25 07:23:00;;;;;;;0.00;0.00;;;;;;;;;;5382278;26;20356;-65
2024/04/25 07:25:26;;;;;;;0.00;0.00;;;9.00;99.90;;;;;;5388356;26;19992;-65
2024/04/25 07:27:52;;;;;;;0.20;0.20;;;9.00;99.90;;;;;;5388187;26;20028;-65
2024/04/25 07:30:17;;;;;;;0.00;0.00;;;9.00;99.90;;;;;;5387966;26;19996;-65
2024/04/25 07:32:44;;;;;;;0.10;0.10;;;9.20;99.90;;;;;;5398841;26;19988;-66
2024/04/25 07:35:10;;;;;;;0.63;0.63;;;9.20;99.90;;;;;;5391575;26;19992;-64
2024/04/25 07:37:37;;;;;;;0.00;0.00;;;9.20;99.90;;;;;;5388133;26;20026;-64
2024/04/25 07:40:04;;;;;;;0.20;0.20;;;9.40;99.90;;;;;;5391125;26;19992;-66
2024/04/25 07:42:31;;;;;;;0.00;0.00;;;9.60;99.90;;;;;;5389100;26;20041;-65
2024/04/25 07:44:57;;;;;;;0.00;0.00;;;9.50;99.90;;;;;;5386964;26;20313;-64
2024/04/25 07:47:24;;;;;;;0.00;0.00;;;9.80;99.90;;;;;;5387517;26;20209;-65
2024/04/25 07:49:52;;;;;;;0.47;0.38;;;9.70;99.90;;;;;;5400332;26;19987;-65
2024/04/25 07:52:17;;;;;;;0.08;0.08;;;9.60;99.90;;;;;;5396631;26;20000;-64
2024/04/25 07:54:43;;;;;;;0.10;0.10;;;9.40;99.90;;;;;;5398646;26;20000;-64
2024/04/25 07:57:09;;;;;;;0.00;0.00;;;9.20;99.90;;;;;;5388907;26;20180;-64
2024/04/25 07:59:34;;;;;;;0.00;0.00;;;9.00;99.90;;;;;;5401065;26;20008;-64
2024/04/25 08:02:00;;;;;;;0.03;0.03;;;8.90;99.90;;;;;;5389501;26;19992;-63
2024/04/25 08:04:26;;;;;;;0.32;0.32;;;9.00;99.90;;;;;;5387655;26;19996;-63
2024/04/25 08:06:51;;;;;;;0.00;0.00;;;9.40;99.90;;;;;;5394590;26;20010;-64
2024/04/25 08:09:17;;;;;;;0.00;0.00;;;9.50;99.90;;;;;;5387515;26;20478;-64
2024/04/25 08:11:43;;;;;;;0.00;0.00;;;9.70;99.90;;;;;;5387475;26;20089;-64
2024/04/25 08:14:09;;;;;;;0.10;0.10;;;10.10;99.90;;;;;;5389098;26;19998;-64
2024/04/25 08:16:35;;;;;;;0.10;0.10;;;10.10;99.90;;;;;;5387221;26;20181;-64
2024/04/25 08:19:01;;;;;;;0.10;0.10;;;10.10;99.90;;;;;;5390038;26;19983;-64
2024/04/25 08:21:26;;;;;;;0.00;0.00;;;10.40;99.90;;;;;;5387069;26;19995;-64
2024/04/25 08:23:52;;;;;;;0.20;0.20;;;;;;;;;;5399999;26;20249;-64
2024/04/25 08:26:18;;;;;;;0.05;0.05;;;10.70;99.90;;;;;;5388618;26;19996;-64
2024/04/25 08:28:43;;;;;;;0.00;0.00;;;10.70;99.90;;;;;;5387284;26;20000;-64
2024/04/25 08:31:09;;;;;;;0.00;0.00;;;10.90;99.90;;;;;;5386623;26;20003;-64
2024/04/25 08:33:35;;;;;;;0.17;0.17;;;11.20;99.90;;;;;;5395751;26;19988;-66
2024/04/25 08:36:01;;;;;;;0.10;0.10;;;11.20;99.90;;;;;;5387101;26;20317;-64
2024/04/25 08:38:29;;;;;;;0.00;0.00;;;11.50;99.90;;;;;;5387203;26;19988;-64
2024/04/25 08:40:56;;;;;;;0.00;0.00;;;11.40;99.90;;;;;;5400649;26;19987;-64
2024/04/25 08:43:22;;;;;;;0.10;0.10;;;11.60;99.90;;;;;;5387943;26;20003;-64
2024/04/25 08:45:50;;;;;;;0.40;0.30;;;11.80;99.90;;;;;;5387258;26;19989;-64
2024/04/25 08:48:17;;;;;;;0.00;0.00;;;;;;;;;;5387397;26;19990;-64
2024/04/25 08:50:46;;;;;;;0.22;0.22;;;11.60;99.90;;;;;;5386216;26;20208;-64
2024/04/25 08:53:15;;;;;;;0.20;0.20;;;11.30;99.90;;;;;;5387257;26;20189;-64
2024/04/25 08:55:43;;;;;;;0.00;0.00;;;11.30;99.90;;;;;;5387186;26;20003;-64
2024/04/25 08:58:09;;;;;;;0.00;0.00;;;11.50;99.90;;;;;;5404062;26;20204;-63
2024/04/25 09:00:34;;;;;;;0.00;0.00;;;11.40;99.90;;;;;;5390650;26;20049;-64
2024/04/25 09:03:06;;;;;;;0.10;0.10;;;11.20;99.90;;;;;;5390386;26;20003;-64
2024/04/25 09:05:33;;;;;;;0.40;0.40;;;11.40;99.90;;;;;;5390537;26;19992;-64
2024/04/25 09:07:59;;;;;;;0.95;0.40;;;11.70;99.90;;;;;;5390461;26;20401;-64
2024/04/25 09:10:24;;;;;;;0.00;0.00;;;12.00;99.90;;;;;;5404880;26;20004;-64
2024/04/25 09:12:51;;;;;;;0.00;0.00;;;12.20;99.90;;;;;;5398252;26;19990;-64
2024/04/25 09:15:17;;;;;;;0.00;0.00;;;12.10;99.90;;;;;;5404796;26;20049;-64
2024/04/25 09:17:43;;;;;;;0.10;0.10;;;12.20;99.70;;;;;;5393724;26;20127;-64
2024/04/25 09:20:09;;;;;;;0.10;0.10;;;12.40;99.80;;;;;;5393959;26;20292;-64
2024/04/25 09:22:38;;;;;;;0.00;0.00;;;12.60;99.30;;;;;;5389089;26;19988;-64
2024/04/25 09:25:07;;;;;;;0.10;0.10;;;12.20;99.00;;;;;;5389842;26;19996;-64
2024/04/25 09:27:33;;;;;;;;;;;12.30;98.90;;;;;;5390806;26;20057;-64
2024/04/25 09:29:59;;;;;;;0.20;0.20;;;12.50;97.50;;;;;;5390235;26;19933;-64
2024/04/25 09:32:24;;;;;;;0.00;0.00;;;12.50;96.60;;;;;;5404465;26;20189;-65
2024/04/25 09:34:50;;;;;;;0.45;0.45;;;12.50;96.80;;;;;;5389635;26;20050;-64
2024/04/25 09:37:16;;;;;;;0.10;0.10;;;12.50;96.50;;;;;;5389625;26;19984;-64
2024/04/25 09:39:42;;;;;;;0.00;0.00;;;12.60;96.90;;;;;;5388929;26;20046;-64
2024/04/25 09:42:11;;;;;;;0.47;0.47;;;12.80;97.00;;;;;;5389576;26;20000;-64
2024/04/25 09:44:37;;;;;;;0.00;0.00;;;13.00;95.00;;;;;;5389864;26;19989;-64
2024/04/25 09:47:11;;;;;;;0.00;0.00;;;13.10;94.80;;;;;;5388379;26;19984;-64
2024/04/25 09:49:46;;;;;;;0.00;0.00;;;13.20;93.00;;;;;;5403618;26;20004;-65
2024/04/25 09:52:19;;;;;;;0.00;0.00;;;13.30;92.90;;;;;;5389304;26;19988;-64
2024/04/25 09:54:47;;;;;;;0.20;0.20;;;13.30;93.10;;;;;;5389234;26;19997;-64
2024/04/25 09:57:18;;;;;;;0.00;0.00;;;13.30;92.20;;;;;;5388295;26;20040;-64
2024/04/25 09:59:52;;;;;;;0.00;0.00;;;13.30;92.60;;;;;;5389533;26;20000;-64
2024/04/25 10:02:19;;;;;;;0.30;0.30;;;13.50;92.70;;;;;;5389264;26;19992;-64
2024/04/25 10:04:46;;;;;;;0.00;0.00;;;13.60;92.50;;;;;;5388317;26;20000;-64
2024/04/25 10:07:14;;;;;;;0.00;0.00;;;;;;;;;;5403648;26;20065;-64
2024/04/25 10:09:41;;;;;;;0.20;0.20;;;14.00;99.90;;;;;;5388227;26;19993;-63
2024/04/25 10:12:07;;;;;;;0.05;0.05;;;14.10;90.20;;;;;;5358468;26;19984;-63
2024/04/25 10:14:33;;;;;;;0.00;0.00;;;14.10;88.70;;;;;;5389275;26;19992;-64
2024/04/25 10:17:04;;;;;;;0.00;0.00;;;14.10;87.30;;;;;;5389332;26;20244;-64
2024/04/25 10:19:40;;;;;;;0.00;0.00;;;14.00;87.50;;;;;;5389375;26;20017;-64
2024/04/25 10:22:19;;;;;;;0.05;0.05;;;14.00;87.70;;;;;;5389052;26;20016;-63
2024/04/25 10:24:45;;;;;;;3.42;0.50;;;14.10;87.20;;;;;;5388315;26;19988;-63
2024/04/25 10:27:12;;;;;;;0.00;0.00;;;13.70;89.40;;;;;;5389139;26;20049;-64
2024/04/25 10:29:37;;;;;;;0.00;0.00;;;13.40;90.60;;;;;;5389279;26;19992;-64
2024/04/25 10:32:04;;;;;;;0.00;0.00;;;13.50;90.40;;;;;;5389354;26;20003;-64
2024/04/25 10:34:30;;;;;;;0.00;0.00;;;13.70;90.20;;;;;;5389185;26;20003;-64
2024/04/25 10:36:56;;;;;;;1.02;0.32;;;13.90;89.10;;;;;;5389072;26;20101;-64
2024/04/25 10:39:22;;;;;;;0.00;0.00;;;14.20;87.30;;;;;;5394021;26;19991;-64
2024/04/25 10:41:47;;;;;;;0.00;0.00;;;14.50;84.50;;;;;;5398472;26;20004;-64
2024/04/25 10:44:14;;;;;;;0.00;0.00;;;14.50;83.60;;;;;;5392671;26;20296;-64
2024/04/25 10:46:40;;;;;;;0.00;0.00;;;14.60;82.70;;;;;;5388736;26;20041;-64
2024/04/25 10:49:07;;;;;;;0.00;0.00;;;14.70;79.30;;;;;;5395955;26;19992;-64
2024/04/25 10:51:36;;;;;;;0.00;0.00;;;14.70;81.70;;;;;;5388876;26;20025;-64
2024/04/25 10:54:02;;;;;;;0.00;0.00;;;14.80;82.70;;;;;;5388870;26;20256;-64
2024/04/25 10:56:29;;;;;;;0.00;0.00;;;14.90;80.70;;;;;;5394733;26;20045;-63
2024/04/25 10:58:57;;;;;;;0.00;0.00;;;14.90;94.00;;;;;;5338984;26;20067;-64
2024/04/25 11:01:26;;;;;;;0.00;0.00;;;14.90;79.40;;;;;;5357605;26;20015;-65
2024/04/25 11:03:56;;;;;;;0.00;0.00;;;14.90;78.00;;;;;;5388560;26;19992;-64
2024/04/25 11:06:24;;;;;;;0.00;0.00;;;14.80;77.20;;;;;;5388067;26;20207;-64
2024/04/25 11:08:50;;;;;;;0.00;0.00;;;14.90;93.60;;;;;;5390925;26;20163;-65
2024/04/25 11:11:16;;;;;;;0.00;0.00;;;14.80;94.00;;;;;;5390784;26;20200;-65
2024/04/25 11:13:42;;;;;;;0.00;0.00;;;14.70;78.70;;;;;;5391939;26;20028;-64
2024/04/25 11:16:08;;;;;;;0.00;0.00;;;14.70;76.30;;;;;;5358490;26;19989;-65
2024/04/25 11:18:35;;;;;;;0.10;0.10;;;14.80;77.20;;;;;;5388433;26;19992;-65
2024/04/25 11:21:07;;;;;;;0.00;0.00;;;14.90;75.50;;;;;;5387098;26;20051;-66
2024/04/25 11:23:33;;;;;;;0.00;0.00;;;14.90;74.50;;;;;;5387334;26;20205;-65
2024/04/25 11:26:02;;;;;;;0.00;0.00;;;15.00;75.30;;;;;;5387823;26;20012;-65
2024/04/25 11:28:28;;;;;;;0.00;0.00;;;14.90;71.60;;;;;;5388637;26;20017;-65
2024/04/25 11:30:54;;;;;;;0.00;0.00;;;14.80;72.50;;;;;;5401782;26;20049;-65
2024/04/25 11:33:22;;;;;;;0.03;0.03;;;15.00;92.00;;;;;;5389141;26;20263;-65
2024/04/25 11:35:48;;;;;;;0.00;0.00;;;14.70;72.90;;;;;;5388202;26;19996;-65
2024/04/25 11:38:16;;;;;;;0.00;0.00;;;14.80;72.00;;;;;;5388044;26;20042;-65
2024/04/25 11:40:42;;;;;;;0.00;0.00;;;14.90;71.80;;;;;;5387939;26;19992;-65
2024/04/25 11:43:16;;;;;;;1.00;0.93;;;15.00;71.40;;;;;;5387812;26;19999;-66
2024/04/25 11:45:44;;;;;;;0.00;0.00;;;15.20;70.60;;;;;;5388248;26;20054;-66
2024/04/25 11:48:12;;;;;;;0.00;0.00;;;15.20;70.40;;;;;;5402781;26;20056;-67
2024/04/25 11:50:38;;;;;;;0.00;0.00;;;14.80;69.50;;;;;;5388182;26;20555;-66
2024/04/25 11:53:08;;;;;;;0.00;0.00;;;14.70;70.00;;;;;;5387814;26;20327;-65
2024/04/25 11:55:37;;;;;;;0.00;0.00;;;14.50;71.50;;;;;;5388003;26;20010;-66
2024/04/25 11:58:04;;;;;;;0.00;0.00;;;14.70;95.30;;;;;;5387728;26;20067;-65
2024/04/25 12:00:30;;;;;;;0.00;0.00;;;14.50;71.00;;;;;;5387839;26;20007;-65
2024/04/25 12:02:56;;;;;;;0.00;0.00;;;15.00;68.70;;;;;;5387790;26;19992;-66
2024/04/25 12:05:22;;;;;;;0.10;0.10;;;15.10;68.20;;;;;;5391690;26;20098;-65
2024/04/25 12:07:51;;;;;;;0.00;0.00;;;15.20;67.80;;;;;;5387627;26;19996;-65
2024/04/25 12:10:18;;;;;;;0.00;0.00;;;15.20;67.40;;;;;;5403668;26;19995;-65
2024/04/25 12:12:43;;;;;;;0.00;0.00;;;15.10;68.50;;;;;;5410808;26;19999;-65
2024/04/25 12:15:09;;;;;;;0.00;0.00;;;15.20;67.00;;;;;;5387528;26;19992;-65
2024/04/25 12:17:35;;;;;;;0.00;0.00;;;15.00;67.60;;;;;;5387740;26;20007;-64
2024/04/25 12:20:02;;;;;;;0.10;0.10;;;14.80;68.50;;;;;;5387543;26;20488;-64
2024/04/25 12:22:28;;;;;;;0.00;0.00;;;14.70;69.50;;;;;;5402272;26;19992;-64
2024/04/25 12:24:54;;;;;;;0.00;0.00;;;15.10;69.00;;;;;;5386421;26;19988;-65
2024/04/25 12:27:19;;;;;;;0.00;0.00;;;15.30;68.20;;;;;;5386222;26;19996;-64
2024/04/25 12:29:45;;;;;;;0.08;0.08;;;15.30;66.60;;;;;;5387477;26;20122;-65
2024/04/25 12:32:11;;;;;;;0.05;0.05;;;15.10;67.30;;;;;;5388212;26;20055;-64
2024/04/25 12:34:37;;;;;;;0.00;0.00;;;15.20;67.20;;;;;;5390636;26;19999;-64
2024/04/25 12:37:03;;;;;;;0.00;0.00;;;14.90;67.70;;;;;;5390277;26;19992;-64
2024/04/25 12:39:31;;;;;;;0.00;0.00;;;14.60;67.70;;;;;;5405741;26;19988;-64
2024/04/25 12:41:57;;;;;;;0.00;0.00;;;14.40;68.00;;;;;;5390683;26;20016;-64
2024/04/25 12:44:23;;;;;;;0.10;0.10;;;14.20;68.10;;;;;;5390586;26;20396;-65
2024/04/25 12:46:49;;;;;;;0.00;0.00;;;14.70;88.30;;;;;;5390616;26;19999;-64
2024/04/25 12:49:37;;;;;;;0.00;0.00;;;13.60;66.90;;;;;;5389552;26;20062;-64
2024/04/25 12:52:05;;;;;;;0.20;0.20;;;14.90;67.90;;;;;;5389467;26;19996;-65
2024/04/25 12:54:31;;;;;;;0.00;0.00;;;15.10;66.30;;;;;;5390732;26;19992;-64
2024/04/25 12:56:56;;;;;;;0.00;0.00;;;15.50;95.30;;;;;;5405830;26;20003;-65
2024/04/25 12:59:22;;;;;;;0.00;0.00;;;14.80;66.00;;;;;;5390597;26;20049;-64
2024/04/25 13:01:51;;;;;;;0.00;0.00;;;14.60;66.30;;;;;;5390674;26;19996;-64
2024/04/25 13:04:17;;;;;;;0.00;0.00;;;14.70;87.30;;;;;;5390748;26;20004;-64
2024/04/25 13:06:42;;;;;;;0.38;0.38;;;14.40;67.60;;;;;;5390770;26;20581;-64